sensor_id;sensor_type;location;lat;lon;timestamp;pressure;altitude;pressure_sealevel;temperature;humidity
6827;BME280;3451;52.476;13.316;2022-07-29T00:00:29;51587.56;;;-145.19;97.77
6827;BME280;3451;52.476;13.316;2022-07-29T00:02:56;51603.81;;;-145.19;97.67
6827;BME280;3451;52.476;13.316;2022-07-29T00:05:22;51628.16;;;-145.19;99.36
6827;BME280;3451;52.476;13.316;2022-07-29T00:07:49;51624.09;;;-145.19;99.39
6827;BME280;3451;52.476;13.316;2022-07-29T00:10:15;51640.34;;;-145.19;99.93
6827;BME280;3451;52.476;13.316;2022-07-29T00:12:41;51693.09;;;-145.19;100.00
6827;BME280;3451;52.476;13.316;2022-07-29T00:15:08;51668.75;;;-145.19;100.00
6827;BME280;3451;52.476;13.316;2022-07-29T00:17:34;51691.06;;;-145.19;100.00
6827;BME280;3451;52.476;13.316;2022-07-29T00:20:01;51697.16;;;-145.19;100.00
6827;BME280;3451;52.476;13.316;2022-07-29T00:22:27;51685.00;;;-145.19;100.00
6827;BME280;3451;52.476;13.316;2022-07-29T00:24:54;51733.69;;;-145.19;100.00
6827;BME280;3451;52.476;13.316;2022-07-29T00:27:20;51770.22;;;-145.19;100.00
6827;BME280;3451;52.476;13.316;2022-07-29T00:29:48;51798.63;;;-145.19;100.00
6827;BME280;3451;52.476;13.316;2022-07-29T00:32:14;51867.66;;;-145.19;100.00
6827;BME280;3451;52.476;13.316;2022-07-29T00:34:41;51898.09;;;-145.19;100.00
6827;BME280;3451;52.476;13.316;2022-07-29T00:37:26;51896.06;;;-145.19;100.00
6827;BME280;3451;52.476;13.316;2022-07-29T00:39:52;51879.81;;;-145.19;100.00
6827;BME280;3451;52.476;13.316;2022-07-29T00:42:18;51920.41;;;-145.19;100.00
6827;BME280;3451;52.476;13.316;2022-07-29T00:44:45;51969.13;;;-145.19;100.00
6827;BME280;3451;52.476;13.316;2022-07-29T00:47:12;52015.81;;;-145.19;100.00
6827;BME280;3451;52.476;13.316;2022-07-29T00:49:39;52050.31;;;-145.19;100.00
6827;BME280;3451;52.476;13.316;2022-07-29T00:52:08;52105.09;;;-145.19;100.00
6827;BME280;3451;52.476;13.316;2022-07-29T00:54:35;52163.97;;;-145.19;100.00
6827;BME280;3451;52.476;13.316;2022-07-29T00:57:10;52133.53;;;-145.19;100.00
6827;BME280;3451;52.476;13.316;2022-07-29T00:59:37;52115.25;;;-145.19;100.00
6827;BME280;3451;52.476;13.316;2022-07-29T01:02:03;52123.38;;;-145.19;100.00
6827;BME280;3451;52.476;13.316;2022-07-29T01:04:31;52247.19;;;-145.19;100.00
6827;BME280;3451;52.476;13.316;2022-07-29T01:06:58;52291.84;;;-145.19;100.00
6827;BME280;3451;52.476;13.316;2022-07-29T01:09:27;52354.75;;;-145.19;100.00
6827;BME280;3451;52.476;13.316;2022-07-29T01:12:11;52346.66;;;-145.19;100.00
6827;BME280;3451;52.476;13.316;2022-07-29T01:14:40;52350.69;;;-145.19;100.00
6827;BME280;3451;52.476;13.316;2022-07-29T01:17:14;52285.75;;;-145.19;100.00
6827;BME280;3451;52.476;13.316;2022-07-29T01:20:03;52348.69;;;-145.19;100.00
6827;BME280;3451;52.476;13.316;2022-07-29T01:22:37;52419.72;;;-145.19;100.00
6827;BME280;3451;52.476;13.316;2022-07-29T01:25:25;52515.13;;;-145.19;100.00
6827;BME280;3451;52.476;13.316;2022-07-29T01:30:51;52529.31;;;-145.19;100.00
6827;BME280;3451;52.476;13.316;2022-07-29T01:33:23;52519.19;;;-145.19;100.00
6827;BME280;3451;52.476;13.316;2022-07-29T01:36:13;52687.66;;;-145.19;100.00
6827;BME280;3451;52.476;13.316;2022-07-29T01:38:45;52586.16;;;-145.19;100.00
6827;BME280;3451;52.476;13.316;2022-07-29T01:41:15;52624.72;;;-145.19;100.00
6827;BME280;3451;52.476;13.316;2022-07-29T01:43:56;52649.09;;;-145.19;100.00
6827;BME280;3451;52.476;13.316;2022-07-29T01:46:33;52839.91;;;-145.19;100.00
6827;BME280;3451;52.476;13.316;2022-07-29T01:49:09;52854.13;;;-145.19;100.00
6827;BME280;3451;52.476;13.316;2022-07-29T01:51:55;52906.91;;;-145.19;100.00
6827;BME280;3451;52.476;13.316;2022-07-29T01:54:32;52841.94;;;-145.19;100.00
6827;BME280;3451;52.476;13.316;2022-07-29T01:57:01;52943.44;;;-145.19;100.00
6827;BME280;3451;52.476;13.316;2022-07-29T01:59:30;52943.44;;;-145.19;100.00
6827;BME280;3451;52.476;13.316;2022-07-29T02:01:58;53024.66;;;-145.19;100.00
6827;BME280;3451;52.476;13.316;2022-07-29T02:04:27;53089.63;;;-145.19;100.00
6827;BME280;3451;52.476;13.316;2022-07-29T02:07:00;53099.75;;;-145.19;100.00
6827;BME280;3451;52.476;13.316;2022-07-29T02:09:28;53276.41;;;-145.19;100.00
6827;BME280;3451;52.476;13.316;2022-07-29T02:11:57;53296.69;;;-145.19;100.00
6827;BME280;3451;52.476;13.316;2022-07-29T02:14:26;53166.75;;;-145.19;100.00
6827;BME280;3451;52.476;13.316;2022-07-29T02:16:55;53440.84;;;-145.19;100.00
6827;BME280;3451;52.476;13.316;2022-07-29T02:19:26;53288.56;;;-145.19;100.00
6827;BME280;3451;52.476;13.316;2022-07-29T02:21:54;53319.03;;;-145.19;100.00
6827;BME280;3451;52.476;13.316;2022-07-29T02:24:23;53345.41;;;-145.19;100.00
6827;BME280;3451;52.476;13.316;2022-07-29T02:26:52;53520.03;;;-145.19;100.00
6827;BME280;3451;52.476;13.316;2022-07-29T02:29:21;53353.53;;;-145.19;100.00
6827;BME280;3451;52.476;13.316;2022-07-29T02:31:51;53272.34;;;-145.19;100.00
6827;BME280;3451;52.476;13.316;2022-07-29T02:34:20;53235.78;;;-145.19;100.00
6827;BME280;3451;52.476;13.316;2022-07-29T02:36:48;53518.00;;;-145.19;100.00
6827;BME280;3451;52.476;13.316;2022-07-29T02:39:16;53607.34;;;-145.19;100.00
6827;BME280;3451;52.476;13.316;2022-07-29T02:41:48;53505.81;;;-145.19;100.00
6827;BME280;3451;52.476;13.316;2022-07-29T02:44:19;53674.34;;;-145.19;100.00
6827;BME280;3451;52.476;13.316;2022-07-29T02:46:58;53920.03;;;-145.19;100.00
6827;BME280;3451;52.476;13.316;2022-07-29T02:49:54;53643.88;;;-145.19;100.00
6827;BME280;3451;52.476;13.316;2022-07-29T02:55:22;53603.28;;;-145.19;100.00
6827;BME280;3451;52.476;13.316;2022-07-29T02:58:13;53463.19;;;-145.19;100.00
6827;BME280;3451;52.476;13.316;2022-07-29T03:00:42;53832.72;;;-145.19;100.00
6827;BME280;3451;52.476;13.316;2022-07-29T03:03:15;53932.22;;;-145.19;100.00
6827;BME280;3451;52.476;13.316;2022-07-29T03:05:42;54052.03;;;-145.19;100.00
6827;BME280;3451;52.476;13.316;2022-07-29T03:08:11;53905.81;;;-145.19;100.00
6827;BME280;3451;52.476;13.316;2022-07-29T03:10:39;53779.94;;;-145.19;100.00
6827;BME280;3451;52.476;13.316;2022-07-29T03:13:09;54005.31;;;-145.19;100.00
6827;BME280;3451;52.476;13.316;2022-07-29T03:15:36;54222.59;;;-145.19;100.00
6827;BME280;3451;52.476;13.316;2022-07-29T03:18:03;54269.31;;;-145.19;100.00
6827;BME280;3451;52.476;13.316;2022-07-29T03:20:30;53922.06;;;-145.19;100.00
6827;BME280;3451;52.476;13.316;2022-07-29T03:22:56;53613.44;;;-145.19;100.00
6827;BME280;3451;52.476;13.316;2022-07-29T03:25:23;53779.94;;;-145.19;100.00
6827;BME280;3451;52.476;13.316;2022-07-29T03:27:49;53820.53;;;-145.19;100.00
6827;BME280;3451;52.476;13.316;2022-07-29T03:30:16;53826.63;;;-145.19;100.00
6827;BME280;3451;52.476;13.316;2022-07-29T03:32:48;53885.50;;;-145.19;100.00
6827;BME280;3451;52.476;13.316;2022-07-29T03:35:18;53820.53;;;-145.19;100.00
6827;BME280;3451;52.476;13.316;2022-07-29T03:37:45;54009.38;;;-145.19;100.00
6827;BME280;3451;52.476;13.316;2022-07-29T03:40:17;53926.13;;;-145.19;100.00
6827;BME280;3451;52.476;13.316;2022-07-29T03:42:46;53885.50;;;-145.19;100.00
6827;BME280;3451;52.476;13.316;2022-07-29T03:45:17;53982.97;;;-145.19;100.00
6827;BME280;3451;52.476;13.316;2022-07-29T03:47:48;54070.31;;;-145.19;100.00
6827;BME280;3451;52.476;13.316;2022-07-29T03:50:22;54149.50;;;-145.19;100.00
6827;BME280;3451;52.476;13.316;2022-07-29T03:52:49;54011.41;;;-145.19;100.00
6827;BME280;3451;52.476;13.316;2022-07-29T03:55:16;54155.59;;;-145.19;100.00
6827;BME280;3451;52.476;13.316;2022-07-29T03:57:44;54100.75;;;-145.19;100.00
6827;BME280;3451;52.476;13.316;2022-07-29T04:00:11;54246.97;;;-145.19;100.00
6827;BME280;3451;52.476;13.316;2022-07-29T04:02:38;54123.09;;;-145.19;100.00
6827;BME280;3451;52.476;13.316;2022-07-29T04:05:11;53950.50;;;-145.19;100.00
6827;BME280;3451;52.476;13.316;2022-07-29T04:07:38;54052.03;;;-145.19;100.00
6827;BME280;3451;52.476;13.316;2022-07-29T04:10:05;53987.03;;;-145.19;100.00
6827;BME280;3451;52.476;13.316;2022-07-29T04:12:31;54003.28;;;-145.19;100.00
6827;BME280;3451;52.476;13.316;2022-07-29T04:14:58;54013.44;;;-145.19;100.00
6827;BME280;3451;52.476;13.316;2022-07-29T04:17:24;54129.19;;;-145.19;100.00
6827;BME280;3451;52.476;13.316;2022-07-29T04:19:50;53771.81;;;-145.19;100.00
6827;BME280;3451;52.476;13.316;2022-07-29T04:22:17;54015.47;;;-145.19;100.00
6827;BME280;3451;52.476;13.316;2022-07-29T04:24:43;53885.50;;;-145.19;100.00
6827;BME280;3451;52.476;13.316;2022-07-29T04:27:10;53792.13;;;-145.19;100.00
6827;BME280;3451;52.476;13.316;2022-07-29T04:29:36;53808.34;;;-145.19;100.00
6827;BME280;3451;52.476;13.316;2022-07-29T04:32:23;53808.34;;;-145.19;100.00
6827;BME280;3451;52.476;13.316;2022-07-29T04:34:49;53895.66;;;-145.19;100.00
6827;BME280;3451;52.476;13.316;2022-07-29T04:37:16;53635.75;;;-145.19;100.00
6827;BME280;3451;52.476;13.316;2022-07-29T04:39:42;53556.56;;;-145.19;100.00
6827;BME280;3451;52.476;13.316;2022-07-29T04:42:09;53544.41;;;-145.19;100.00
6827;BME280;3451;52.476;13.316;2022-07-29T04:44:35;53595.16;;;-145.19;100.00
6827;BME280;3451;52.476;13.316;2022-07-29T04:47:07;53524.09;;;-145.19;100.00
6827;BME280;3451;52.476;13.316;2022-07-29T04:49:34;53471.31;;;-145.19;100.00
6827;BME280;3451;52.476;13.316;2022-07-29T04:52:00;53621.56;;;-145.19;100.00
6827;BME280;3451;52.476;13.316;2022-07-29T04:54:27;53615.47;;;-145.19;100.00
6827;BME280;3451;52.476;13.316;2022-07-29T04:56:53;53524.09;;;-145.19;100.00
6827;BME280;3451;52.476;13.316;2022-07-29T04:59:19;53483.47;;;-145.19;100.00
6827;BME280;3451;52.476;13.316;2022-07-29T05:01:46;53493.63;;;-145.19;100.00
6827;BME280;3451;52.476;13.316;2022-07-29T05:04:12;53455.06;;;-145.19;100.00
6827;BME280;3451;52.476;13.316;2022-07-29T05:06:39;53254.06;;;-145.19;100.00
6827;BME280;3451;52.476;13.316;2022-07-29T05:09:06;53286.53;;;-145.19;100.00
6827;BME280;3451;52.476;13.316;2022-07-29T05:11:32;53414.44;;;-145.19;100.00
6827;BME280;3451;52.476;13.316;2022-07-29T05:13:59;53282.47;;;-145.19;100.00
6827;BME280;3451;52.476;13.316;2022-07-29T05:16:25;53162.69;;;-145.19;100.00
6827;BME280;3451;52.476;13.316;2022-07-29T05:18:52;52937.34;;;-145.19;100.00
6827;BME280;3451;52.476;13.316;2022-07-29T05:21:18;52890.66;;;-145.19;100.00
6827;BME280;3451;52.476;13.316;2022-07-29T05:23:44;53138.34;;;-145.19;100.00
6827;BME280;3451;52.476;13.316;2022-07-29T05:26:16;53247.97;;;-145.19;100.00
6827;BME280;3451;52.476;13.316;2022-07-29T05:28:42;52910.97;;;-145.19;100.00
6827;BME280;3451;52.476;13.316;2022-07-29T05:31:08;52754.66;;;-145.19;100.00
6827;BME280;3451;52.476;13.316;2022-07-29T05:33:35;52630.81;;;-145.19;100.00
6827;BME280;3451;52.476;13.316;2022-07-29T05:36:04;52695.78;;;-145.19;100.00
6827;BME280;3451;52.476;13.316;2022-07-29T05:38:34;52722.16;;;-145.19;100.00
6827;BME280;3451;52.476;13.316;2022-07-29T05:41:00;52809.47;;;-145.19;100.00
6827;BME280;3451;52.476;13.316;2022-07-29T05:43:27;52758.72;;;-145.19;100.00
6827;BME280;3451;52.476;13.316;2022-07-29T05:45:54;52622.69;;;-145.19;100.00
6827;BME280;3451;52.476;13.316;2022-07-29T05:48:21;52582.09;;;-145.19;100.00
6827;BME280;3451;52.476;13.316;2022-07-29T05:50:47;52567.91;;;-145.19;100.00
6827;BME280;3451;52.476;13.316;2022-07-29T05:53:14;52537.44;;;-145.19;100.00
6827;BME280;3451;52.476;13.316;2022-07-29T05:55:46;52555.72;;;-145.19;100.00
6827;BME280;3451;52.476;13.316;2022-07-29T05:58:12;52537.44;;;-145.19;100.00
6827;BME280;3451;52.476;13.316;2022-07-29T06:00:39;52476.56;;;-145.19;100.00
6827;BME280;3451;52.476;13.316;2022-07-29T06:03:06;52435.94;;;-145.19;100.00
6827;BME280;3451;52.476;13.316;2022-07-29T06:05:32;52401.44;;;-145.19;100.00
6827;BME280;3451;52.476;13.316;2022-07-29T06:07:59;52417.69;;;-145.19;100.00
6827;BME280;3451;52.476;13.316;2022-07-29T06:10:25;52389.28;;;-145.19;100.00
6827;BME280;3451;52.476;13.316;2022-07-29T06:12:52;52362.88;;;-145.19;100.00
6827;BME280;3451;52.476;13.316;2022-07-29T06:15:19;52302.00;;;-145.19;100.00
6827;BME280;3451;52.476;13.316;2022-07-29T06:17:45;52159.91;;;-145.19;100.00
6827;BME280;3451;52.476;13.316;2022-07-29T06:20:27;52220.81;;;-145.19;100.00
6827;BME280;3451;52.476;13.316;2022-07-29T06:22:57;52141.63;;;-145.19;100.00
6827;BME280;3451;52.476;13.316;2022-07-29T06:25:29;52159.91;;;-145.19;100.00
6827;BME280;3451;52.476;13.316;2022-07-29T06:27:56;52147.72;;;-145.19;100.00
6827;BME280;3451;52.476;13.316;2022-07-29T06:30:23;51997.53;;;-145.19;100.00
6827;BME280;3451;52.476;13.316;2022-07-29T06:32:50;52054.38;;;-145.19;100.00
6827;BME280;3451;52.476;13.316;2022-07-29T06:35:16;52062.47;;;-145.19;100.00
6827;BME280;3451;52.476;13.316;2022-07-29T06:38:03;52090.91;;;-145.19;100.00
6827;BME280;3451;52.476;13.316;2022-07-29T06:40:49;52143.66;;;-145.19;100.00
6827;BME280;3451;52.476;13.316;2022-07-29T06:43:38;52090.91;;;-145.19;100.00
6827;BME280;3451;52.476;13.316;2022-07-29T06:46:19;52015.81;;;-145.19;100.00
6827;BME280;3451;52.476;13.316;2022-07-29T06:48:47;52025.94;;;-145.19;100.00
6827;BME280;3451;52.476;13.316;2022-07-29T06:51:15;51965.06;;;-145.19;100.00
6827;BME280;3451;52.476;13.316;2022-07-29T06:53:48;52001.59;;;-145.19;100.00
6827;BME280;3451;52.476;13.316;2022-07-29T06:56:28;51930.56;;;-145.19;100.00
6827;BME280;3451;52.476;13.316;2022-07-29T06:58:55;51843.28;;;-145.19;100.00
6827;BME280;3451;52.476;13.316;2022-07-29T07:01:21;51875.75;;;-145.19;100.00
6827;BME280;3451;52.476;13.316;2022-07-29T07:03:48;51800.66;;;-145.19;100.00
6827;BME280;3451;52.476;13.316;2022-07-29T07:06:14;51770.22;;;-145.19;100.00
6827;BME280;3451;52.476;13.316;2022-07-29T07:08:41;51725.56;;;-145.19;99.11
6827;BME280;3451;52.476;13.316;2022-07-29T07:11:08;51749.94;;;-145.19;99.30
6827;BME280;3451;52.476;13.316;2022-07-29T07:13:35;51648.47;;;-145.19;96.96
6827;BME280;3451;52.476;13.316;2022-07-29T07:16:02;51672.81;;;-145.19;97.73
6827;BME280;3451;52.476;13.316;2022-07-29T07:18:29;51616.00;;;-145.19;95.16
6827;BME280;3451;52.476;13.316;2022-07-29T07:20:56;51518.59;;;-145.19;92.55
6827;BME280;3451;52.476;13.316;2022-07-29T07:23:23;51506.41;;;-145.19;92.03
6827;BME280;3451;52.476;13.316;2022-07-29T07:25:50;51510.47;;;-145.19;90.72
6827;BME280;3451;52.476;13.316;2022-07-29T07:28:16;51427.25;;;-145.19;86.76
6827;BME280;3451;52.476;13.316;2022-07-29T07:30:49;51366.38;;;-145.19;83.01
6827;BME280;3451;52.476;13.316;2022-07-29T07:33:16;51419.16;;;-145.19;82.45
6827;BME280;3451;52.476;13.316;2022-07-29T07:35:42;51307.53;;;-145.19;76.22
6827;BME280;3451;52.476;13.316;2022-07-29T07:38:10;51348.13;;;-145.19;75.01
6827;BME280;3451;52.476;13.316;2022-07-29T07:40:36;51307.53;;;-145.19;71.97
6827;BME280;3451;52.476;13.316;2022-07-29T07:43:03;51325.78;;;-145.19;69.18
6827;BME280;3451;52.476;13.316;2022-07-29T07:45:29;51329.84;;;-145.19;68.57
6827;BME280;3451;52.476;13.316;2022-07-29T07:47:56;51321.75;;;-145.19;66.47
6827;BME280;3451;52.476;13.316;2022-07-29T07:50:22;51299.41;;;-145.19;64.64
6827;BME280;3451;52.476;13.316;2022-07-29T07:52:50;51329.84;;;-145.19;63.08
6827;BME280;3451;52.476;13.316;2022-07-29T07:55:18;51295.34;;;-145.19;61.39
6827;BME280;3451;52.476;13.316;2022-07-29T07:57:45;51295.34;;;-145.19;57.41
6827;BME280;3451;52.476;13.316;2022-07-29T08:00:13;51331.88;;;-145.19;59.02
6827;BME280;3451;52.476;13.316;2022-07-29T08:02:40;51287.25;;;-145.19;60.51
6827;BME280;3451;52.476;13.316;2022-07-29T08:05:07;51323.75;;;-145.19;59.48
6827;BME280;3451;52.476;13.316;2022-07-29T08:07:38;51311.59;;;-145.19;60.33
6827;BME280;3451;52.476;13.316;2022-07-29T08:10:05;51289.28;;;-145.19;57.42
6827;BME280;3451;52.476;13.316;2022-07-29T08:12:31;51317.69;;;-145.19;59.65
6827;BME280;3451;52.476;13.316;2022-07-29T08:14:57;51293.31;;;-145.19;58.95
6827;BME280;3451;52.476;13.316;2022-07-29T08:17:24;51287.25;;;-145.19;58.27
6827;BME280;3451;52.476;13.316;2022-07-29T08:19:50;51291.31;;;-145.19;59.16
6827;BME280;3451;52.476;13.316;2022-07-29T08:22:17;51327.81;;;-145.19;60.65
6827;BME280;3451;52.476;13.316;2022-07-29T08:24:43;51271.00;;;-145.19;58.34
6827;BME280;3451;52.476;13.316;2022-07-29T08:27:10;51352.19;;;-145.19;60.07
6827;BME280;3451;52.476;13.316;2022-07-29T08:29:56;51350.16;;;-145.19;58.70
6827;BME280;3451;52.476;13.316;2022-07-29T08:32:23;51335.94;;;-145.19;56.78
6827;BME280;3451;52.476;13.316;2022-07-29T08:35:12;51323.75;;;-145.19;56.55
6827;BME280;3451;52.476;13.316;2022-07-29T08:37:38;51329.84;;;-145.19;53.68
6827;BME280;3451;52.476;13.316;2022-07-29T08:40:05;51323.75;;;-145.19;51.61
6827;BME280;3451;52.476;13.316;2022-07-29T08:42:32;51364.34;;;-145.19;53.17
6827;BME280;3451;52.476;13.316;2022-07-29T08:44:58;51356.22;;;-145.19;53.54
6827;BME280;3451;52.476;13.316;2022-07-29T08:47:25;51352.19;;;-145.19;50.35
6827;BME280;3451;52.476;13.316;2022-07-29T08:49:53;51370.44;;;-145.19;51.49
6827;BME280;3451;52.476;13.316;2022-07-29T08:52:21;51350.16;;;-145.19;51.20
6827;BME280;3451;52.476;13.316;2022-07-29T08:54:52;51331.88;;;-145.19;50.02
6827;BME280;3451;52.476;13.316;2022-07-29T08:57:20;51301.44;;;-145.19;53.89
6827;BME280;3451;52.476;13.316;2022-07-29T08:59:50;51226.38;;;-145.19;50.66
6827;BME280;3451;52.476;13.316;2022-07-29T09:02:22;51283.19;;;-145.19;52.32
6827;BME280;3451;52.476;13.316;2022-07-29T09:04:49;51260.88;;;-145.19;52.57
6827;BME280;3451;52.476;13.316;2022-07-29T09:07:17;51279.13;;;-145.19;52.15
6827;BME280;3451;52.476;13.316;2022-07-29T09:09:44;51266.94;;;-145.19;51.28
6827;BME280;3451;52.476;13.316;2022-07-29T09:12:11;51283.19;;;-145.19;52.64
6827;BME280;3451;52.476;13.316;2022-07-29T09:14:54;51337.97;;;-145.19;52.89
6827;BME280;3451;52.476;13.316;2022-07-29T09:20:11;51333.91;;;-145.19;52.19
6827;BME280;3451;52.476;13.316;2022-07-29T09:22:38;51356.22;;;-145.19;51.38
6827;BME280;3451;52.476;13.316;2022-07-29T09:25:08;51344.06;;;-145.19;50.85
6827;BME280;3451;52.476;13.316;2022-07-29T09:27:35;51356.22;;;-145.19;47.68
6827;BME280;3451;52.476;13.316;2022-07-29T09:30:07;51303.47;;;-145.19;48.95
6827;BME280;3451;52.476;13.316;2022-07-29T09:32:56;51327.81;;;-145.19;47.42
6827;BME280;3451;52.476;13.316;2022-07-29T09:35:25;51291.31;;;-145.19;48.20
6827;BME280;3451;52.476;13.316;2022-07-29T09:37:52;51311.59;;;-145.19;51.18
6827;BME280;3451;52.476;13.316;2022-07-29T09:40:21;51287.25;;;-145.19;49.94
6827;BME280;3451;52.476;13.316;2022-07-29T09:42:48;51331.88;;;-145.19;51.32
6827;BME280;3451;52.476;13.316;2022-07-29T09:45:32;51287.25;;;-145.19;47.54
6827;BME280;3451;52.476;13.316;2022-07-29T09:47:59;51277.09;;;-145.19;49.57
6827;BME280;3451;52.476;13.316;2022-07-29T09:50:39;51303.47;;;-145.19;49.61
6827;BME280;3451;52.476;13.316;2022-07-29T09:53:06;51252.75;;;-145.19;48.42
6827;BME280;3451;52.476;13.316;2022-07-29T09:55:45;51315.66;;;-145.19;48.52
6827;BME280;3451;52.476;13.316;2022-07-29T09:58:18;51327.81;;;-145.19;50.75
6827;BME280;3451;52.476;13.316;2022-07-29T10:00:46;51307.53;;;-145.19;48.93
6827;BME280;3451;52.476;13.316;2022-07-29T10:03:13;51315.66;;;-145.19;47.63
6827;BME280;3451;52.476;13.316;2022-07-29T10:05:40;51307.53;;;-145.19;49.36
6827;BME280;3451;52.476;13.316;2022-07-29T10:08:09;51327.81;;;-145.19;47.96
6827;BME280;3451;52.476;13.316;2022-07-29T10:10:38;51315.66;;;-145.19;47.63
6827;BME280;3451;52.476;13.316;2022-07-29T10:13:13;51319.72;;;-145.19;47.14
6827;BME280;3451;52.476;13.316;2022-07-29T10:15:43;51295.34;;;-145.19;49.29
6827;BME280;3451;52.476;13.316;2022-07-29T10:18:12;51331.88;;;-145.19;48.24
6827;BME280;3451;52.476;13.316;2022-07-29T10:20:39;51277.09;;;-145.19;46.48
6827;BME280;3451;52.476;13.316;2022-07-29T10:23:06;51262.88;;;-145.19;44.84
6827;BME280;3451;52.476;13.316;2022-07-29T10:25:32;51268.97;;;-145.19;43.64
6827;BME280;3451;52.476;13.316;2022-07-29T10:27:59;51260.88;;;-145.19;44.42
6827;BME280;3451;52.476;13.316;2022-07-29T10:30:26;51258.84;;;-145.19;44.28
6827;BME280;3451;52.476;13.316;2022-07-29T10:33:10;51283.19;;;-145.19;44.07
6827;BME280;3451;52.476;13.316;2022-07-29T10:35:58;51275.06;;;-145.19;43.84
6827;BME280;3451;52.476;13.316;2022-07-29T10:38:42;51279.13;;;-145.19;40.22
6827;BME280;3451;52.476;13.316;2022-07-29T10:44:19;51242.59;;;-145.19;40.63
6827;BME280;3451;52.476;13.316;2022-07-29T10:46:49;51258.84;;;-145.19;40.61
6827;BME280;3451;52.476;13.316;2022-07-29T10:49:21;51246.66;;;-145.19;41.40
6827;BME280;3451;52.476;13.316;2022-07-29T10:52:04;51234.47;;;-145.19;41.23
6827;BME280;3451;52.476;13.316;2022-07-29T10:57:24;51250.72;;;-145.19;43.78
6827;BME280;3451;52.476;13.316;2022-07-29T11:02:43;51246.66;;;-145.19;43.79
6827;BME280;3451;52.476;13.316;2022-07-29T11:05:16;51222.31;;;-145.19;45.03
6827;BME280;3451;52.476;13.316;2022-07-29T11:10:50;51218.25;;;-145.19;45.17
6827;BME280;3451;52.476;13.316;2022-07-29T11:13:48;51226.38;;;-145.19;45.10
6827;BME280;3451;52.476;13.316;2022-07-29T11:16:19;51260.88;;;-145.19;41.13
6827;BME280;3451;52.476;13.316;2022-07-29T11:19:18;51258.84;;;-145.19;41.37
6827;BME280;3451;52.476;13.316;2022-07-29T11:21:51;51291.31;;;-145.19;40.76
6827;BME280;3451;52.476;13.316;2022-07-29T11:24:28;51287.25;;;-145.19;39.53
6827;BME280;3451;52.476;13.316;2022-07-29T11:27:15;51299.41;;;-145.19;39.25
6827;BME280;3451;52.476;13.316;2022-07-29T11:32:19;51340.00;;;-145.19;41.11
6827;BME280;3451;52.476;13.316;2022-07-29T11:35:21;51287.25;;;-145.19;41.74
6827;BME280;3451;52.476;13.316;2022-07-29T11:38:26;51299.41;;;-145.19;42.52
6827;BME280;3451;52.476;13.316;2022-07-29T11:41:20;51331.88;;;-145.19;40.85
6827;BME280;3451;52.476;13.316;2022-07-29T11:43:58;51335.94;;;-145.19;42.03
6827;BME280;3451;52.476;13.316;2022-07-29T11:46:47;51303.47;;;-145.19;42.39
6827;BME280;3451;52.476;13.316;2022-07-29T11:49:21;51362.31;;;-145.19;42.70
6827;BME280;3451;52.476;13.316;2022-07-29T11:51:59;51346.09;;;-145.19;43.99
6827;BME280;3451;52.476;13.316;2022-07-29T11:54:34;51340.00;;;-145.19;44.67
6827;BME280;3451;52.476;13.316;2022-07-29T11:57:21;51356.22;;;-145.19;43.95
6827;BME280;3451;52.476;13.316;2022-07-29T11:59:47;51325.78;;;-145.19;45.41
6827;BME280;3451;52.476;13.316;2022-07-29T12:02:15;51376.53;;;-145.19;45.38
6827;BME280;3451;52.476;13.316;2022-07-29T12:05:02;51346.09;;;-145.19;46.09
6827;BME280;3451;52.476;13.316;2022-07-29T12:07:37;51388.69;;;-145.19;45.83
6827;BME280;3451;52.476;13.316;2022-07-29T12:10:05;51335.94;;;-145.19;45.43
6827;BME280;3451;52.476;13.316;2022-07-29T12:12:37;51337.97;;;-145.19;46.11
6827;BME280;3451;52.476;13.316;2022-07-29T12:15:18;51340.00;;;-145.19;46.77
6827;BME280;3451;52.476;13.316;2022-07-29T12:17:47;51327.81;;;-145.19;48.76
6827;BME280;3451;52.476;13.316;2022-07-29T12:20:23;51372.47;;;-145.19;48.25
6827;BME280;3451;52.476;13.316;2022-07-29T12:22:50;51319.72;;;-145.19;49.07
6827;BME280;3451;52.476;13.316;2022-07-29T12:25:17;51378.56;;;-145.19;50.05
6827;BME280;3451;52.476;13.316;2022-07-29T12:28:02;51301.44;;;-145.19;50.19
6827;BME280;3451;52.476;13.316;2022-07-29T12:30:41;51340.00;;;-145.19;51.02
6827;BME280;3451;52.476;13.316;2022-07-29T12:33:12;51348.13;;;-145.19;51.69
6827;BME280;3451;52.476;13.316;2022-07-29T12:35:40;51319.72;;;-145.19;49.68
6827;BME280;3451;52.476;13.316;2022-07-29T12:38:09;51327.81;;;-145.19;47.46
6827;BME280;3451;52.476;13.316;2022-07-29T12:40:36;51319.72;;;-145.19;47.96
6827;BME280;3451;52.476;13.316;2022-07-29T12:43:07;51335.94;;;-145.19;48.48
6827;BME280;3451;52.476;13.316;2022-07-29T12:45:33;51354.22;;;-145.19;49.03
6827;BME280;3451;52.476;13.316;2022-07-29T12:48:00;51360.28;;;-145.19;48.27
6827;BME280;3451;52.476;13.316;2022-07-29T12:50:26;51366.38;;;-145.19;49.29
6827;BME280;3451;52.476;13.316;2022-07-29T12:52:53;51342.03;;;-145.19;49.43
6827;BME280;3451;52.476;13.316;2022-07-29T12:55:39;51344.06;;;-145.19;49.83
6827;BME280;3451;52.476;13.316;2022-07-29T12:58:06;51337.97;;;-145.19;51.08
6827;BME280;3451;52.476;13.316;2022-07-29T13:00:33;51329.84;;;-145.19;48.96
6827;BME280;3451;52.476;13.316;2022-07-29T13:03:00;51337.97;;;-145.19;48.98
6827;BME280;3451;52.476;13.316;2022-07-29T13:05:44;51327.81;;;-145.19;49.64
6827;BME280;3451;52.476;13.316;2022-07-29T13:08:17;51307.53;;;-145.19;50.98
6827;BME280;3451;52.476;13.316;2022-07-29T13:10:48;51327.81;;;-145.19;49.71
6827;BME280;3451;52.476;13.316;2022-07-29T13:13:15;51323.75;;;-145.19;49.85
6827;BME280;3451;52.476;13.316;2022-07-29T13:15:45;51352.19;;;-145.19;47.16
6827;BME280;3451;52.476;13.316;2022-07-29T13:18:34;51311.59;;;-145.19;48.48
6827;BME280;3451;52.476;13.316;2022-07-29T13:21:13;51348.13;;;-145.19;49.47
6827;BME280;3451;52.476;13.316;2022-07-29T13:23:40;51311.59;;;-145.19;49.40
6827;BME280;3451;52.476;13.316;2022-07-29T13:26:08;51323.75;;;-145.19;49.91